createdAt,value
2023-05-14T00:00:35.142Z,88278.00
2023-05-14T00:01:35.126Z,88278.00
2023-05-14T00:02:35.155Z,88276.00
2023-05-14T00:03:35.159Z,88276.00
2023-05-14T00:04:35.157Z,88274.00
2023-05-14T00:05:35.099Z,88272.00
2023-05-14T00:06:35.132Z,88270.00
2023-05-14T00:07:35.153Z,88270.00
2023-05-14T00:08:35.175Z,88266.00
2023-05-14T00:09:35.213Z,88268.00
2023-05-14T00:10:35.236Z,88266.00
2023-05-14T00:11:35.223Z,88266.00
2023-05-14T00:12:35.210Z,88264.00
2023-05-14T00:13:35.211Z,88266.00
2023-05-14T00:14:35.212Z,88260.00
2023-05-14T00:15:35.278Z,88264.00
2023-05-14T00:16:35.288Z,88254.00
2023-05-14T00:17:35.182Z,88258.00
2023-05-14T00:18:35.268Z,88252.00
2023-05-14T00:19:35.154Z,88252.00
2023-05-14T00:20:35.136Z,88252.00
2023-05-14T00:21:35.139Z,88250.00
2023-05-14T00:22:35.122Z,88250.00
2023-05-14T00:23:35.107Z,88248.00
2023-05-14T00:24:35.139Z,88248.00
2023-05-14T00:25:35.161Z,88246.00
2023-05-14T00:26:35.201Z,88246.00
2023-05-14T00:27:35.253Z,88244.00
2023-05-14T00:28:35.262Z,88248.00
2023-05-14T00:29:35.313Z,88248.00
2023-05-14T00:30:35.324Z,88244.00
2023-05-14T00:31:35.401Z,88246.00
2023-05-14T00:32:35.421Z,88244.00
2023-05-14T00:33:35.331Z,88244.00
2023-05-14T00:34:35.317Z,88246.00
2023-05-14T00:35:35.307Z,88241.00
2023-05-14T00:36:35.284Z,88241.00
2023-05-14T00:37:35.271Z,88243.00
2023-05-14T00:38:35.261Z,88243.00
2023-05-14T00:39:35.253Z,88243.00
2023-05-14T00:40:35.236Z,88243.00
2023-05-14T00:41:35.220Z,88243.00
2023-05-14T00:42:35.199Z,88243.00
2023-05-14T00:43:35.219Z,88244.00
2023-05-14T00:44:35.257Z,88243.00
2023-05-14T00:45:35.290Z,88244.00
2023-05-14T00:46:35.359Z,88241.00
2023-05-14T00:47:35.375Z,88241.00
2023-05-14T00:48:35.381Z,88243.00
2023-05-14T00:49:35.430Z,88243.00
2023-05-14T00:50:35.473Z,88241.00
2023-05-14T00:51:35.503Z,88241.00
2023-05-14T00:52:35.545Z,88241.00
2023-05-14T00:53:35.574Z,88239.00
2023-05-14T00:54:35.606Z,88241.00
2023-05-14T00:55:35.654Z,88237.00
2023-05-14T00:56:35.710Z,88237.00
2023-05-14T00:57:35.732Z,88239.00
2023-05-14T00:58:35.761Z,88239.00
2023-05-14T00:59:35.803Z,88239.00
2023-05-14T01:00:35.887Z,88241.00
2023-05-14T01:01:35.908Z,88241.00
2023-05-14T01:02:35.944Z,88237.00
2023-05-14T01:03:36.065Z,88233.00
2023-05-14T01:04:35.989Z,88233.00
2023-05-14T01:05:36.022Z,88235.00
2023-05-14T01:06:36.053Z,88233.00
2023-05-14T01:07:36.109Z,88235.00
2023-05-14T01:08:36.132Z,88235.00
2023-05-14T01:09:36.159Z,88231.00
2023-05-14T01:10:36.216Z,88233.00
2023-05-14T01:11:36.232Z,88235.00
2023-05-14T01:12:36.281Z,88235.00
2023-05-14T01:13:36.316Z,88237.00
2023-05-14T01:14:36.353Z,88235.00
2023-05-14T01:15:36.407Z,88235.00
2023-05-14T01:16:36.527Z,88233.00
2023-05-14T01:17:36.502Z,88235.00
2023-05-14T01:18:36.644Z,88235.00
2023-05-14T01:19:36.589Z,88235.00
2023-05-14T01:20:36.625Z,88233.00
2023-05-14T01:21:36.665Z,88233.00
2023-05-14T01:22:36.700Z,88231.00
2023-05-14T01:23:36.726Z,88231.00
2023-05-14T01:24:36.770Z,88235.00
2023-05-14T01:25:36.798Z,88233.00
2023-05-14T01:26:36.836Z,88237.00
2023-05-14T01:27:36.883Z,88237.00
2023-05-14T01:28:36.924Z,88241.00
2023-05-14T01:29:36.952Z,88241.00
2023-05-14T01:30:37.011Z,88239.00
2023-05-14T01:31:37.152Z,88239.00
2023-05-14T01:32:37.130Z,88241.00
2023-05-14T01:33:37.115Z,88241.00
2023-05-14T01:34:37.184Z,88241.00
2023-05-14T01:35:37.218Z,88239.00
2023-05-14T01:36:37.267Z,88239.00
2023-05-14T01:37:37.295Z,88237.00
2023-05-14T01:38:37.356Z,88237.00
2023-05-14T01:39:37.386Z,88237.00
2023-05-14T01:40:37.430Z,88235.00
2023-05-14T01:41:37.435Z,88235.00
2023-05-14T01:42:37.400Z,88235.00
2023-05-14T01:43:37.485Z,88235.00
2023-05-14T01:44:37.388Z,88237.00
2023-05-14T01:45:37.430Z,88237.00
2023-05-14T01:46:37.445Z,88237.00
2023-05-14T01:47:37.399Z,88237.00
2023-05-14T01:48:37.352Z,88235.00
2023-05-14T01:49:37.320Z,88235.00
2023-05-14T01:50:37.328Z,88235.00
2023-05-14T01:51:37.344Z,88235.00
2023-05-14T01:52:37.401Z,88235.00
2023-05-14T01:53:37.429Z,88233.00
2023-05-14T01:54:37.471Z,88233.00
2023-05-14T01:55:37.523Z,88235.00
2023-05-14T01:56:37.556Z,88233.00
2023-05-14T01:57:37.597Z,88231.00
2023-05-14T01:58:37.644Z,88231.00
2023-05-14T01:59:37.683Z,88231.00
2023-05-14T02:00:37.733Z,88231.00
2023-05-14T02:01:37.732Z,88231.00
2023-05-14T02:02:37.726Z,88231.00
2023-05-14T02:03:37.712Z,88229.00
2023-05-14T02:04:37.679Z,88231.00
2023-05-14T02:05:37.661Z,88229.00
2023-05-14T02:06:37.653Z,88229.00
2023-05-14T02:07:37.640Z,88229.00
2023-05-14T02:08:37.618Z,88227.00
2023-05-14T02:09:37.592Z,88223.00
2023-05-14T02:10:37.624Z,88225.00
2023-05-14T02:11:37.666Z,88221.00
2023-05-14T02:12:37.725Z,88223.00
2023-05-14T02:13:37.756Z,88223.00
2023-05-14T02:14:37.799Z,88221.00
2023-05-14T02:15:37.878Z,88223.00
2023-05-14T02:16:37.888Z,88223.00
2023-05-14T02:17:38.028Z,88223.00
2023-05-14T02:18:38.000Z,88221.00
2023-05-14T02:19:38.033Z,88223.00
2023-05-14T02:20:38.110Z,88223.00
2023-05-14T02:21:38.124Z,88223.00
2023-05-14T02:22:38.181Z,88223.00
2023-05-14T02:23:41.647Z,88221.00
2023-05-14T02:24:38.220Z,88212.00
2023-05-14T02:25:38.209Z,88223.00
2023-05-14T02:26:38.199Z,88214.00
2023-05-14T02:27:38.176Z,88210.00
2023-05-14T02:28:38.163Z,88221.00
2023-05-14T02:29:38.153Z,88208.00
2023-05-14T02:30:38.130Z,88208.00
2023-05-14T02:31:38.133Z,88206.00
2023-05-14T02:32:38.178Z,88206.00
2023-05-14T02:33:38.168Z,88208.00
2023-05-14T02:34:38.072Z,88206.00
2023-05-14T02:35:38.070Z,88206.00
2023-05-14T02:36:38.048Z,88206.00
2023-05-14T02:37:38.044Z,88204.00
2023-05-14T02:38:38.040Z,88204.00
2023-05-14T02:39:38.009Z,88204.00
2023-05-14T02:40:38.010Z,88200.00
2023-05-14T02:41:37.994Z,88198.00
2023-05-14T02:42:37.989Z,88200.00
2023-05-14T02:43:37.982Z,88198.00
2023-05-14T02:44:37.977Z,88196.00
2023-05-14T02:45:37.952Z,88196.00
2023-05-14T02:46:37.970Z,88196.00
2023-05-14T02:47:38.364Z,88196.00
2023-05-14T02:48:37.962Z,88196.00
2023-05-14T02:49:38.012Z,88198.00
2023-05-14T02:50:38.065Z,88196.00
2023-05-14T02:51:38.100Z,88194.00
2023-05-14T02:52:38.145Z,88194.00
2023-05-14T02:53:38.213Z,88192.00
2023-05-14T02:54:38.243Z,88192.00
2023-05-14T02:55:38.298Z,88190.00
2023-05-14T02:56:38.356Z,88190.00
2023-05-14T02:57:38.398Z,88190.00
2023-05-14T02:58:38.454Z,88190.00
2023-05-14T02:59:38.523Z,88192.00
2023-05-14T03:00:38.567Z,88190.00
2023-05-14T03:01:38.606Z,88188.00
2023-05-14T03:02:38.753Z,88183.00
2023-05-14T03:03:38.704Z,88179.00
2023-05-14T03:04:38.750Z,88179.00
2023-05-14T03:05:38.788Z,88181.00
2023-05-14T03:06:38.846Z,88181.00
2023-05-14T03:07:38.865Z,88177.00
2023-05-14T03:08:38.856Z,88177.00
2023-05-14T03:09:38.849Z,88181.00
2023-05-14T03:10:38.870Z,88183.00
2023-05-14T03:11:38.873Z,88181.00
2023-05-14T03:12:38.888Z,88184.00
2023-05-14T03:13:38.914Z,88184.00
2023-05-14T03:14:38.938Z,88184.00
2023-05-14T03:15:38.968Z,88184.00
2023-05-14T03:16:39.018Z,88188.00
2023-05-14T03:17:39.116Z,88192.00
2023-05-14T03:18:39.117Z,88196.00
2023-05-14T03:19:39.153Z,88192.00
2023-05-14T03:20:39.208Z,88192.00
2023-05-14T03:21:39.271Z,88194.00
2023-05-14T03:22:39.323Z,88194.00
2023-05-14T03:23:39.386Z,88196.00
2023-05-14T03:24:39.465Z,88196.00
2023-05-14T03:25:39.517Z,88198.00
2023-05-14T03:26:39.556Z,88196.00
2023-05-14T03:27:39.598Z,88198.00
2023-05-14T03:28:39.646Z,88198.00
2023-05-14T03:29:39.649Z,88198.00
2023-05-14T03:30:39.713Z,88196.00
2023-05-14T03:31:39.686Z,88196.00
2023-05-14T03:32:39.753Z,88194.00
2023-05-14T03:33:39.742Z,88190.00
2023-05-14T03:34:39.748Z,88190.00
2023-05-14T03:35:39.755Z,88188.00
2023-05-14T03:36:39.774Z,88186.00
2023-05-14T03:37:39.748Z,88186.00
2023-05-14T03:38:39.760Z,88186.00
2023-05-14T03:39:39.739Z,88186.00
2023-05-14T03:40:39.753Z,88184.00
2023-05-14T03:41:39.757Z,88186.00
2023-05-14T03:42:39.819Z,88184.00
2023-05-14T03:43:39.742Z,88184.00
2023-05-14T03:44:39.726Z,88181.00
2023-05-14T03:45:39.738Z,88181.00
2023-05-14T03:46:39.737Z,88179.00
2023-05-14T03:47:39.740Z,88179.00
2023-05-14T03:48:39.734Z,88175.00
2023-05-14T03:49:39.715Z,88177.00
2023-05-14T03:50:39.726Z,88177.00
2023-05-14T03:51:39.715Z,88179.00
2023-05-14T03:52:39.702Z,88179.00
2023-05-14T03:53:39.696Z,88181.00
2023-05-14T03:54:39.690Z,88184.00
2023-05-14T03:55:39.726Z,88186.00
2023-05-14T03:56:39.692Z,88184.00
2023-05-14T03:57:39.687Z,88188.00
2023-05-14T03:58:39.737Z,88190.00
2023-05-14T03:59:39.733Z,88192.00
2023-05-14T04:00:39.767Z,88190.00
2023-05-14T04:01:39.810Z,88186.00
2023-05-14T04:02:39.896Z,88190.00
2023-05-14T04:03:40.032Z,88184.00
2023-05-14T04:04:39.901Z,88186.00
2023-05-14T04:05:39.914Z,88184.00
2023-05-14T04:06:39.947Z,88184.00
2023-05-14T04:07:39.962Z,88186.00
2023-05-14T04:08:39.963Z,88184.00
2023-05-14T04:09:39.961Z,88186.00
2023-05-14T04:10:39.956Z,88183.00
2023-05-14T04:11:39.972Z,88181.00
2023-05-14T04:12:39.953Z,88179.00
2023-05-14T04:13:39.956Z,88177.00
2023-05-14T04:14:39.940Z,88179.00
2023-05-14T04:15:39.957Z,88177.00
2023-05-14T04:16:40.035Z,88177.00
2023-05-14T04:17:39.956Z,88179.00
2023-05-14T04:18:39.985Z,88179.00
2023-05-14T04:19:39.930Z,88181.00
2023-05-14T04:20:39.933Z,88179.00
2023-05-14T04:21:39.943Z,88183.00
2023-05-14T04:22:39.927Z,88181.00
2023-05-14T04:23:39.924Z,88183.00
2023-05-14T04:24:39.911Z,88177.00
2023-05-14T04:25:39.908Z,88181.00
2023-05-14T04:26:39.928Z,88181.00
2023-05-14T04:27:39.917Z,88179.00
2023-05-14T04:28:39.940Z,88179.00
2023-05-14T04:29:39.979Z,88177.00
2023-05-14T04:30:40.028Z,88175.00
2023-05-14T04:31:40.081Z,88179.00
2023-05-14T04:32:40.134Z,88179.00
2023-05-14T04:33:40.106Z,88175.00
2023-05-14T04:34:40.138Z,88179.00
2023-05-14T04:35:40.157Z,88177.00
2023-05-14T04:36:40.234Z,88173.00
2023-05-14T04:37:40.226Z,88173.00
2023-05-14T04:38:40.263Z,88173.00
2023-05-14T04:39:40.287Z,88169.00
2023-05-14T04:40:40.325Z,88169.00
2023-05-14T04:41:40.377Z,88171.00
2023-05-14T04:42:40.391Z,88171.00
2023-05-14T04:43:40.426Z,88165.00
2023-05-14T04:44:40.474Z,88169.00
2023-05-14T04:45:40.535Z,88173.00
2023-05-14T04:46:40.535Z,88169.00
2023-05-14T04:47:40.594Z,88173.00
2023-05-14T04:48:40.609Z,88173.00
2023-05-14T04:49:40.645Z,88173.00
2023-05-14T04:50:40.663Z,88175.00
2023-05-14T04:51:40.709Z,88173.00
2023-05-14T04:52:40.739Z,88173.00
2023-05-14T04:53:40.789Z,88173.00
2023-05-14T04:54:40.866Z,88171.00
2023-05-14T04:55:40.857Z,88171.00
2023-05-14T04:56:40.890Z,88171.00
2023-05-14T04:57:40.937Z,88169.00
2023-05-14T04:58:40.974Z,88169.00
2023-05-14T04:59:41.017Z,88169.00
2023-05-14T05:00:41.051Z,88165.00
2023-05-14T05:01:41.132Z,88161.00
2023-05-14T05:02:41.199Z,88157.00
2023-05-14T05:03:41.221Z,88155.00
2023-05-14T05:04:41.217Z,88155.00
2023-05-14T05:05:41.246Z,88153.00
2023-05-14T05:06:41.284Z,88153.00
2023-05-14T05:07:41.339Z,88155.00
2023-05-14T05:08:41.381Z,88155.00
2023-05-14T05:09:41.425Z,88157.00
2023-05-14T05:10:41.465Z,88159.00
2023-05-14T05:11:41.507Z,88157.00
2023-05-14T05:12:41.557Z,88161.00
2023-05-14T05:13:41.604Z,88165.00
2023-05-14T05:14:41.644Z,88163.00
2023-05-14T05:15:41.720Z,88165.00
2023-05-14T05:16:41.747Z,88163.00
2023-05-14T05:17:41.952Z,88163.00
2023-05-14T05:18:41.857Z,88167.00
2023-05-14T05:19:44.185Z,88167.00
2023-05-14T05:20:41.867Z,88167.00
2023-05-14T05:21:41.882Z,88165.00
2023-05-14T05:22:41.879Z,88165.00
2023-05-14T05:23:41.879Z,88159.00
2023-05-14T05:24:41.880Z,88159.00
2023-05-14T05:25:41.888Z,88157.00
2023-05-14T05:26:41.902Z,88159.00
2023-05-14T05:27:41.898Z,88155.00
2023-05-14T05:28:41.896Z,88155.00
2023-05-14T05:29:41.907Z,88153.00
2023-05-14T05:30:41.904Z,88153.00
2023-05-14T05:31:42.004Z,88151.00
2023-05-14T05:32:41.923Z,88151.00
2023-05-14T05:33:41.916Z,88151.00
2023-05-14T05:34:41.911Z,88149.00
2023-05-14T05:35:41.944Z,88149.00
2023-05-14T05:36:41.916Z,88151.00
2023-05-14T05:37:41.956Z,88153.00
2023-05-14T05:38:41.922Z,88149.00
2023-05-14T05:39:41.926Z,88149.00
2023-05-14T05:40:41.924Z,88149.00
2023-05-14T05:41:41.942Z,88147.00
2023-05-14T05:42:41.932Z,88145.00
2023-05-14T05:43:41.943Z,88143.00
2023-05-14T05:44:41.949Z,88143.00
2023-05-14T05:45:41.965Z,88141.00
2023-05-14T05:46:42.002Z,88139.00
2023-05-14T05:47:42.006Z,88143.00
2023-05-14T05:48:41.994Z,88141.00
2023-05-14T05:49:42.000Z,88141.00
2023-05-14T05:50:41.981Z,88141.00
2023-05-14T05:51:41.996Z,88143.00
2023-05-14T05:52:41.988Z,88141.00
2023-05-14T05:53:41.991Z,88141.00
2023-05-14T05:54:42.004Z,88143.00
2023-05-14T05:55:41.999Z,88141.00
2023-05-14T05:56:42.011Z,88141.00
2023-05-14T05:57:42.003Z,88139.00
2023-05-14T05:58:42.005Z,88139.00
2023-05-14T05:59:42.020Z,88136.00
2023-05-14T06:00:42.024Z,88134.00
2023-05-14T06:01:42.050Z,88130.00
2023-05-14T06:02:42.146Z,88130.00
2023-05-14T06:03:42.167Z,88130.00
2023-05-14T06:04:42.134Z,88128.00
2023-05-14T06:05:42.227Z,88128.00
2023-05-14T06:06:42.233Z,88128.00
2023-05-14T06:07:42.290Z,88128.00
2023-05-14T06:08:42.332Z,88130.00
2023-05-14T06:09:42.451Z,88130.00
2023-05-14T06:10:42.481Z,88128.00
2023-05-14T06:11:42.548Z,88130.00
2023-05-14T06:12:42.508Z,88130.00
2023-05-14T06:13:42.541Z,88130.00
2023-05-14T06:14:42.575Z,88128.00
2023-05-14T06:15:42.612Z,88128.00
2023-05-14T06:16:42.717Z,88126.00
2023-05-14T06:17:42.739Z,88128.00
2023-05-14T06:18:42.774Z,88128.00
2023-05-14T06:19:42.793Z,88124.00
2023-05-14T06:20:42.840Z,88124.00
2023-05-14T06:21:42.886Z,88122.00
2023-05-14T06:22:42.940Z,88122.00
2023-05-14T06:23:42.970Z,88120.00
2023-05-14T06:24:43.019Z,88122.00
2023-05-14T06:25:43.071Z,88118.00
2023-05-14T06:26:43.124Z,88118.00
2023-05-14T06:27:43.161Z,88116.00
2023-05-14T06:28:43.198Z,88118.00
2023-05-14T06:29:43.250Z,88116.00
2023-05-14T06:30:43.309Z,88116.00
2023-05-14T06:31:43.430Z,88116.00
2023-05-14T06:32:43.430Z,88116.00
2023-05-14T06:33:43.444Z,88116.00
2023-05-14T06:34:43.473Z,88112.00
2023-05-14T06:35:43.546Z,88112.00
2023-05-14T06:36:43.585Z,88112.00
2023-05-14T06:37:43.630Z,88110.00
2023-05-14T06:38:43.675Z,88108.00
2023-05-14T06:39:43.721Z,88106.00
2023-05-14T06:40:43.788Z,88108.00
2023-05-14T06:41:43.842Z,88106.00
2023-05-14T06:42:43.879Z,88104.00
2023-05-14T06:43:43.950Z,88102.00
2023-05-14T06:44:43.982Z,88104.00
2023-05-14T06:45:44.028Z,88104.00
2023-05-14T06:46:44.083Z,88102.00
2023-05-14T06:47:44.191Z,88104.00
2023-05-14T06:48:44.170Z,88106.00
2023-05-14T06:49:44.184Z,88108.00
2023-05-14T06:50:44.228Z,88106.00
2023-05-14T06:51:44.270Z,88108.00
2023-05-14T06:52:44.298Z,88106.00
2023-05-14T06:53:44.345Z,88110.00
2023-05-14T06:54:44.382Z,88112.00
2023-05-14T06:55:44.421Z,88112.00
2023-05-14T06:56:44.466Z,88112.00
2023-05-14T06:57:44.489Z,88112.00
2023-05-14T06:58:44.517Z,88110.00
2023-05-14T06:59:44.556Z,88110.00
2023-05-14T07:00:44.608Z,88108.00
2023-05-14T07:01:44.704Z,88108.00
2023-05-14T07:02:44.698Z,88106.00
2023-05-14T07:03:44.716Z,88104.00
2023-05-14T07:04:44.777Z,88102.00
2023-05-14T07:05:44.786Z,88100.00
2023-05-14T07:06:44.829Z,88098.00
2023-05-14T07:07:44.852Z,88098.00
2023-05-14T07:08:44.875Z,88096.00
2023-05-14T07:09:44.908Z,88094.00
2023-05-14T07:10:44.956Z,88092.00
2023-05-14T07:11:44.996Z,88090.00
2023-05-14T07:12:44.999Z,88090.00
2023-05-14T07:13:45.040Z,88088.00
2023-05-14T07:14:45.058Z,88086.00
2023-05-14T07:15:45.094Z,88086.00
2023-05-14T07:16:45.157Z,88086.00
2023-05-14T07:17:45.187Z,88084.00
2023-05-14T07:18:45.195Z,88084.00
2023-05-14T07:19:45.172Z,88084.00
2023-05-14T07:20:45.191Z,88084.00
2023-05-14T07:21:45.225Z,88082.00
2023-05-14T07:22:45.233Z,88079.00
2023-05-14T07:23:45.285Z,88079.00
2023-05-14T07:24:45.295Z,88079.00
2023-05-14T07:25:45.310Z,88073.00
2023-05-14T07:26:45.346Z,88071.00
2023-05-14T07:27:45.371Z,88069.00
2023-05-14T07:28:45.377Z,88067.00
2023-05-14T07:29:45.411Z,88067.00
2023-05-14T07:30:45.423Z,88063.00
2023-05-14T07:31:45.515Z,88067.00
2023-05-14T07:32:45.473Z,88065.00
2023-05-14T07:33:45.470Z,88065.00
2023-05-14T07:34:45.458Z,88063.00
2023-05-14T07:35:45.469Z,88063.00
2023-05-14T07:36:45.464Z,88063.00
2023-05-14T07:37:45.477Z,88061.00
2023-05-14T07:38:45.466Z,88059.00
2023-05-14T07:39:45.480Z,88059.00
2023-05-14T07:40:45.461Z,88059.00
2023-05-14T07:41:45.452Z,88057.00
2023-05-14T07:42:45.457Z,88055.00
2023-05-14T07:43:45.444Z,88053.00
2023-05-14T07:44:45.434Z,88051.00
2023-05-14T07:45:45.428Z,88053.00
2023-05-14T07:46:45.424Z,88053.00
2023-05-14T07:47:45.499Z,88049.00
2023-05-14T07:48:45.487Z,88049.00
2023-05-14T07:49:45.425Z,88049.00
2023-05-14T07:50:45.420Z,88047.00
2023-05-14T07:51:45.409Z,88047.00
2023-05-14T07:52:45.410Z,88047.00
2023-05-14T07:53:45.414Z,88045.00
2023-05-14T07:54:45.409Z,88045.00
2023-05-14T07:55:45.393Z,88045.00
2023-05-14T07:56:45.398Z,88045.00
2023-05-14T07:57:45.370Z,88045.00
2023-05-14T07:58:45.362Z,88047.00
2023-05-14T07:59:45.364Z,88045.00
2023-05-14T08:00:45.359Z,88045.00
2023-05-14T08:01:45.385Z,88045.00
2023-05-14T08:02:45.474Z,88047.00
2023-05-14T08:03:45.457Z,88043.00
2023-05-14T08:04:45.327Z,88039.00
2023-05-14T08:05:45.324Z,88043.00
2023-05-14T08:06:45.343Z,88041.00
2023-05-14T08:07:45.346Z,88039.00
2023-05-14T08:08:45.350Z,88037.00
2023-05-14T08:09:45.382Z,88039.00
2023-05-14T08:10:45.401Z,88035.00
2023-05-14T08:11:45.445Z,88037.00
2023-05-14T08:12:45.485Z,88033.00
2023-05-14T08:13:45.544Z,88035.00
2023-05-14T08:14:45.540Z,88033.00
2023-05-14T08:15:45.594Z,88033.00
2023-05-14T08:16:45.626Z,88031.00
2023-05-14T08:17:45.709Z,88029.00
2023-05-14T08:18:45.734Z,88029.00
2023-05-14T08:19:45.779Z,88027.00
2023-05-14T08:20:45.841Z,88026.00
2023-05-14T08:21:45.921Z,88024.00
2023-05-14T08:22:45.954Z,88026.00
2023-05-14T08:23:46.021Z,88024.00
2023-05-14T08:24:46.090Z,88026.00
2023-05-14T08:25:46.159Z,88024.00
2023-05-14T08:26:46.233Z,88022.00
2023-05-14T08:27:46.297Z,88020.00
2023-05-14T08:28:46.359Z,88022.00
2023-05-14T08:29:46.446Z,88016.00
2023-05-14T08:30:46.500Z,88016.00
2023-05-14T08:31:46.558Z,88014.00
2023-05-14T08:32:46.639Z,88010.00
2023-05-14T08:33:46.690Z,88014.00
2023-05-14T08:34:46.756Z,88008.00
2023-05-14T08:35:46.833Z,88008.00
2023-05-14T08:36:46.907Z,88006.00
2023-05-14T08:37:46.970Z,88008.00
2023-05-14T08:38:47.044Z,88004.00
2023-05-14T08:39:47.125Z,88002.00
2023-05-14T08:40:47.166Z,88000.00
2023-05-14T08:41:47.224Z,87998.00
2023-05-14T08:42:47.215Z,88002.00
2023-05-14T08:43:47.208Z,88000.00
2023-05-14T08:44:47.215Z,87996.00
2023-05-14T08:45:47.216Z,87998.00
2023-05-14T08:46:47.203Z,88000.00
2023-05-14T08:47:47.250Z,88002.00
2023-05-14T08:48:47.200Z,88000.00
2023-05-14T08:49:47.193Z,88000.00
2023-05-14T08:50:47.183Z,87998.00
2023-05-14T08:51:47.243Z,87996.00
2023-05-14T08:52:47.294Z,87998.00
2023-05-14T08:53:47.367Z,87998.00
2023-05-14T08:54:47.427Z,88002.00
2023-05-14T08:55:47.488Z,88000.00
2023-05-14T08:56:48.566Z,87996.00
2023-05-14T08:57:47.561Z,87996.00
2023-05-14T08:58:47.548Z,87994.00
2023-05-14T08:59:47.551Z,87994.00
2023-05-14T09:00:47.584Z,87998.00
2023-05-14T09:01:47.584Z,87992.00
2023-05-14T09:02:47.611Z,87988.00
2023-05-14T09:03:47.627Z,87994.00
2023-05-14T09:04:47.547Z,87994.00
2023-05-14T09:05:47.556Z,87994.00
2023-05-14T09:06:47.561Z,87992.00
2023-05-14T09:07:47.555Z,87992.00
2023-05-14T09:08:47.594Z,87992.00
2023-05-14T09:09:47.621Z,87994.00
2023-05-14T09:10:47.639Z,87996.00
2023-05-14T09:11:47.664Z,87992.00
2023-05-14T09:12:47.683Z,87994.00
2023-05-14T09:13:47.673Z,87992.00
2023-05-14T09:14:47.688Z,87992.00
2023-05-14T09:15:47.681Z,87996.00
2023-05-14T09:16:47.775Z,87992.00
2023-05-14T09:17:47.756Z,87988.00
2023-05-14T09:18:47.824Z,87990.00
2023-05-14T09:19:47.759Z,87988.00
2023-05-14T09:20:47.815Z,87988.00
2023-05-14T09:21:47.890Z,87990.00
2023-05-14T09:22:47.932Z,87988.00
2023-05-14T09:23:48.006Z,87990.00
2023-05-14T09:24:48.061Z,87984.00
2023-05-14T09:25:48.104Z,87984.00
2023-05-14T09:26:48.163Z,87982.00
2023-05-14T09:27:48.228Z,87984.00
2023-05-14T09:28:48.278Z,87980.00
2023-05-14T09:29:48.341Z,87978.00
2023-05-14T09:30:48.380Z,87978.00
2023-05-14T09:31:48.496Z,87978.00
2023-05-14T09:32:48.528Z,87974.00
2023-05-14T09:33:48.552Z,87972.00
2023-05-14T09:34:48.618Z,87976.00
2023-05-14T09:35:48.668Z,87972.00
2023-05-14T09:36:48.733Z,87978.00
2023-05-14T09:37:48.807Z,87976.00
2023-05-14T09:38:48.840Z,87974.00
2023-05-14T09:39:48.904Z,87976.00
2023-05-14T09:40:48.954Z,87974.00
2023-05-14T09:41:49.012Z,87978.00
2023-05-14T09:42:49.072Z,87978.00
2023-05-14T09:43:49.116Z,87974.00
2023-05-14T09:44:49.183Z,87976.00
2023-05-14T09:45:49.228Z,87972.00
2023-05-14T09:46:49.343Z,87971.00
2023-05-14T09:47:49.440Z,87971.00
2023-05-14T09:48:49.406Z,87972.00
2023-05-14T09:49:49.456Z,87967.00
2023-05-14T09:50:49.484Z,87971.00
2023-05-14T09:51:49.592Z,87967.00
2023-05-14T09:52:49.584Z,87967.00
2023-05-14T09:53:49.639Z,87967.00
2023-05-14T09:54:49.680Z,87956.00
2023-05-14T09:55:49.726Z,87967.00
2023-05-14T09:56:49.788Z,87965.00
2023-05-14T09:57:49.830Z,87965.00
2023-05-14T09:58:49.895Z,87965.00
2023-05-14T09:59:49.937Z,87969.00
2023-05-14T10:00:50.042Z,87969.00
2023-05-14T10:01:50.030Z,87967.00
2023-05-14T10:02:50.086Z,87967.00
2023-05-14T10:03:50.143Z,87967.00
2023-05-14T10:04:50.351Z,87965.00
2023-05-14T10:05:50.240Z,87967.00
2023-05-14T10:06:50.277Z,87967.00
2023-05-14T10:07:50.314Z,87965.00
2023-05-14T10:08:50.359Z,87967.00
2023-05-14T10:09:50.425Z,87967.00
2023-05-14T10:10:50.470Z,87969.00
2023-05-14T10:11:50.527Z,87969.00
2023-05-14T10:12:50.572Z,87967.00
2023-05-14T10:13:50.615Z,87965.00
2023-05-14T10:14:50.676Z,87967.00
2023-05-14T10:15:50.720Z,87965.00
2023-05-14T10:16:50.861Z,87967.00
2023-05-14T10:17:50.878Z,87965.00
2023-05-14T10:18:50.943Z,87967.00
2023-05-14T10:19:50.925Z,87967.00
2023-05-14T10:20:50.987Z,87967.00
2023-05-14T10:21:51.034Z,87967.00
2023-05-14T10:22:51.085Z,87969.00
2023-05-14T10:23:51.121Z,87971.00
2023-05-14T10:24:51.176Z,87972.00
2023-05-14T10:25:51.222Z,87969.00
2023-05-14T10:26:51.269Z,87972.00
2023-05-14T10:27:51.332Z,87971.00
2023-05-14T10:28:51.384Z,87974.00
2023-05-14T10:29:51.413Z,87976.00
2023-05-14T10:30:51.500Z,87976.00
2023-05-14T10:31:51.509Z,87974.00
2023-05-14T10:32:51.642Z,87976.00
2023-05-14T10:33:51.621Z,87974.00
2023-05-14T10:34:51.667Z,87971.00
2023-05-14T10:35:51.715Z,87976.00
2023-05-14T10:36:51.766Z,87974.00
2023-05-14T10:37:51.823Z,87974.00
2023-05-14T10:38:51.922Z,87972.00
2023-05-14T10:39:51.903Z,87971.00
2023-05-14T10:40:54.163Z,87969.00
2023-05-14T10:41:51.980Z,87972.00
2023-05-14T10:42:52.036Z,87971.00
2023-05-14T10:43:52.072Z,87972.00
2023-05-14T10:44:52.112Z,87972.00
2023-05-14T10:45:52.158Z,87969.00
2023-05-14T10:46:52.289Z,87969.00
2023-05-14T10:47:52.282Z,87967.00
2023-05-14T10:48:52.289Z,87965.00
2023-05-14T10:49:52.320Z,87965.00
2023-05-14T10:50:52.386Z,87958.00
2023-05-14T10:51:52.394Z,87954.00
2023-05-14T10:52:52.444Z,87956.00
2023-05-14T10:53:52.466Z,87952.00
2023-05-14T10:54:52.517Z,87950.00
2023-05-14T10:55:52.539Z,87948.00
2023-05-14T10:56:52.572Z,87950.00
2023-05-14T10:57:52.572Z,87948.00
2023-05-14T10:58:52.589Z,87948.00
2023-05-14T10:59:52.563Z,87948.00
2023-05-14T11:00:52.565Z,87946.00
2023-05-14T11:01:52.593Z,87942.00
2023-05-14T11:02:52.588Z,87944.00
2023-05-14T11:03:52.611Z,87940.00
2023-05-14T11:04:52.531Z,87938.00
2023-05-14T11:05:52.547Z,87942.00
2023-05-14T11:06:52.533Z,87938.00
2023-05-14T11:07:52.518Z,87936.00
2023-05-14T11:08:52.503Z,87936.00
2023-05-14T11:09:52.507Z,87936.00
2023-05-14T11:10:52.511Z,87942.00
2023-05-14T11:11:52.495Z,87940.00
2023-05-14T11:12:52.496Z,87936.00
2023-05-14T11:13:52.483Z,87940.00
2023-05-14T11:14:52.481Z,87938.00
2023-05-14T11:15:52.462Z,87936.00
2023-05-14T11:16:52.512Z,87932.00
2023-05-14T11:17:52.497Z,87934.00
2023-05-14T11:18:52.514Z,87932.00
2023-05-14T11:19:52.452Z,87928.00
2023-05-14T11:20:52.449Z,87930.00
2023-05-14T11:21:52.457Z,87930.00
2023-05-14T11:22:52.484Z,87928.00
2023-05-14T11:23:52.485Z,87928.00
2023-05-14T11:24:52.511Z,87928.00
2023-05-14T11:25:52.580Z,87924.00
2023-05-14T11:26:52.525Z,87924.00
2023-05-14T11:27:52.551Z,87924.00
2023-05-14T11:28:52.557Z,87922.00
2023-05-14T11:29:52.568Z,87922.00
2023-05-14T11:30:52.577Z,87919.00
2023-05-14T11:31:52.644Z,87917.00
2023-05-14T11:32:52.669Z,87919.00
2023-05-14T11:33:52.623Z,87917.00
2023-05-14T11:34:52.657Z,87913.00
2023-05-14T11:35:52.653Z,87915.00
2023-05-14T11:36:52.657Z,87915.00
2023-05-14T11:37:52.697Z,87913.00
2023-05-14T11:38:52.827Z,87909.00
2023-05-14T11:39:52.635Z,87911.00
2023-05-14T11:40:52.632Z,87915.00
2023-05-14T11:41:52.679Z,87913.00
2023-05-14T11:42:52.664Z,87915.00
2023-05-14T11:43:52.633Z,87913.00
2023-05-14T11:44:52.633Z,87911.00